sensor_id;sensor_type;location;lat;lon;timestamp;P1;durP1;ratioP1;P2;durP2;ratioP2
52067;SDS011;60237;52.338;21.228;2023-12-29T00:01:56;45.38;;;7.35;;
52067;SDS011;60237;52.338;21.228;2023-12-29T00:04:23;26.30;;;6.60;;
52067;SDS011;60237;52.338;21.228;2023-12-29T00:06:51;66.75;;;8.35;;
52067;SDS011;60237;52.338;21.228;2023-12-29T00:09:28;37.10;;;7.43;;
52067;SDS011;60237;52.338;21.228;2023-12-29T00:11:54;47.40;;;7.93;;
52067;SDS011;60237;52.338;21.228;2023-12-29T00:14:21;45.05;;;7.85;;
52067;SDS011;60237;52.338;21.228;2023-12-29T00:16:47;49.22;;;8.15;;
52067;SDS011;60237;52.338;21.228;2023-12-29T00:19:14;68.07;;;9.77;;
52067;SDS011;60237;52.338;21.228;2023-12-29T00:21:41;65.18;;;8.82;;
52067;SDS011;60237;52.338;21.228;2023-12-29T00:24:08;66.65;;;7.90;;
52067;SDS011;60237;52.338;21.228;2023-12-29T00:26:35;51.55;;;8.00;;
52067;SDS011;60237;52.338;21.228;2023-12-29T00:29:02;77.43;;;8.77;;
52067;SDS011;60237;52.338;21.228;2023-12-29T00:31:28;56.08;;;8.77;;
52067;SDS011;60237;52.338;21.228;2023-12-29T00:33:56;58.13;;;7.97;;
52067;SDS011;60237;52.338;21.228;2023-12-29T00:36:23;56.42;;;9.07;;
52067;SDS011;60237;52.338;21.228;2023-12-29T00:38:50;37.85;;;7.72;;
52067;SDS011;60237;52.338;21.228;2023-12-29T00:41:17;74.75;;;9.45;;
52067;SDS011;60237;52.338;21.228;2023-12-29T00:43:43;68.95;;;9.15;;
52067;SDS011;60237;52.338;21.228;2023-12-29T00:46:10;58.45;;;8.05;;
52067;SDS011;60237;52.338;21.228;2023-12-29T00:48:40;37.17;;;7.78;;
52067;SDS011;60237;52.338;21.228;2023-12-29T00:51:07;96.57;;;10.02;;
52067;SDS011;60237;52.338;21.228;2023-12-29T00:53:35;52.47;;;8.23;;
52067;SDS011;60237;52.338;21.228;2023-12-29T00:56:02;35.17;;;6.32;;
52067;SDS011;60237;52.338;21.228;2023-12-29T00:58:29;50.47;;;7.35;;
52067;SDS011;60237;52.338;21.228;2023-12-29T01:00:55;24.90;;;5.75;;
52067;SDS011;60237;52.338;21.228;2023-12-29T01:03:22;41.78;;;6.57;;
52067;SDS011;60237;52.338;21.228;2023-12-29T01:05:51;41.35;;;6.95;;
52067;SDS011;60237;52.338;21.228;2023-12-29T01:08:18;45.38;;;6.30;;
52067;SDS011;60237;52.338;21.228;2023-12-29T01:10:45;43.05;;;6.97;;
52067;SDS011;60237;52.338;21.228;2023-12-29T01:13:11;62.72;;;8.05;;
52067;SDS011;60237;52.338;21.228;2023-12-29T01:15:38;31.92;;;6.78;;
52067;SDS011;60237;52.338;21.228;2023-12-29T01:18:07;37.65;;;6.85;;
52067;SDS011;60237;52.338;21.228;2023-12-29T01:20:34;59.97;;;8.50;;
52067;SDS011;60237;52.338;21.228;2023-12-29T01:23:00;42.20;;;6.28;;
52067;SDS011;60237;52.338;21.228;2023-12-29T01:25:27;27.98;;;6.28;;
52067;SDS011;60237;52.338;21.228;2023-12-29T01:27:54;64.80;;;7.22;;
52067;SDS011;60237;52.338;21.228;2023-12-29T01:30:21;28.98;;;6.32;;
52067;SDS011;60237;52.338;21.228;2023-12-29T01:32:48;42.22;;;6.55;;
52067;SDS011;60237;52.338;21.228;2023-12-29T01:35:14;97.68;;;10.02;;
52067;SDS011;60237;52.338;21.228;2023-12-29T01:37:44;33.92;;;7.40;;
52067;SDS011;60237;52.338;21.228;2023-12-29T01:40:11;41.92;;;6.85;;
52067;SDS011;60237;52.338;21.228;2023-12-29T01:42:38;107.50;;;11.32;;
52067;SDS011;60237;52.338;21.228;2023-12-29T01:45:06;47.42;;;7.28;;
52067;SDS011;60237;52.338;21.228;2023-12-29T01:47:37;32.83;;;7.10;;
52067;SDS011;60237;52.338;21.228;2023-12-29T01:50:04;45.90;;;7.07;;
52067;SDS011;60237;52.338;21.228;2023-12-29T01:52:31;48.30;;;7.63;;
52067;SDS011;60237;52.338;21.228;2023-12-29T01:54:57;39.38;;;7.97;;
52067;SDS011;60237;52.338;21.228;2023-12-29T01:57:24;66.78;;;9.00;;
52067;SDS011;60237;52.338;21.228;2023-12-29T01:59:51;51.78;;;7.75;;
52067;SDS011;60237;52.338;21.228;2023-12-29T02:02:19;80.15;;;9.90;;
52067;SDS011;60237;52.338;21.228;2023-12-29T02:04:45;66.93;;;9.13;;
52067;SDS011;60237;52.338;21.228;2023-12-29T02:07:12;67.32;;;9.02;;
52067;SDS011;60237;52.338;21.228;2023-12-29T02:09:39;63.17;;;8.38;;
52067;SDS011;60237;52.338;21.228;2023-12-29T02:12:06;97.15;;;10.68;;
52067;SDS011;60237;52.338;21.228;2023-12-29T02:14:32;77.30;;;10.02;;
52067;SDS011;60237;52.338;21.228;2023-12-29T02:21:55;36.10;;;8.18;;
52067;SDS011;60237;52.338;21.228;2023-12-29T02:24:22;50.10;;;8.55;;
52067;SDS011;60237;52.338;21.228;2023-12-29T02:26:50;58.63;;;8.23;;
52067;SDS011;60237;52.338;21.228;2023-12-29T02:29:17;33.47;;;7.25;;
52067;SDS011;60237;52.338;21.228;2023-12-29T02:31:47;46.35;;;8.23;;
52067;SDS011;60237;52.338;21.228;2023-12-29T02:34:16;44.55;;;8.15;;
52067;SDS011;60237;52.338;21.228;2023-12-29T02:36:44;49.70;;;7.97;;
52067;SDS011;60237;52.338;21.228;2023-12-29T02:39:11;119.13;;;13.00;;
52067;SDS011;60237;52.338;21.228;2023-12-29T02:41:38;40.33;;;8.98;;
52067;SDS011;60237;52.338;21.228;2023-12-29T02:44:05;36.30;;;7.75;;
52067;SDS011;60237;52.338;21.228;2023-12-29T02:46:32;70.95;;;9.60;;
52067;SDS011;60237;52.338;21.228;2023-12-29T02:48:58;60.88;;;8.63;;
52067;SDS011;60237;52.338;21.228;2023-12-29T02:51:25;38.03;;;7.53;;
52067;SDS011;60237;52.338;21.228;2023-12-29T02:53:52;45.10;;;10.25;;
52067;SDS011;60237;52.338;21.228;2023-12-29T02:56:19;67.25;;;10.30;;
52067;SDS011;60237;52.338;21.228;2023-12-29T02:58:45;45.35;;;8.50;;
52067;SDS011;60237;52.338;21.228;2023-12-29T03:01:14;72.32;;;11.18;;
52067;SDS011;60237;52.338;21.228;2023-12-29T03:03:41;76.68;;;10.90;;
52067;SDS011;60237;52.338;21.228;2023-12-29T03:06:08;32.47;;;7.43;;
52067;SDS011;60237;52.338;21.228;2023-12-29T03:08:35;54.20;;;9.60;;
52067;SDS011;60237;52.338;21.228;2023-12-29T03:11:01;66.07;;;9.82;;
52067;SDS011;60237;52.338;21.228;2023-12-29T03:13:29;37.22;;;9.38;;
52067;SDS011;60237;52.338;21.228;2023-12-29T03:15:56;50.15;;;9.52;;
52067;SDS011;60237;52.338;21.228;2023-12-29T03:18:23;70.97;;;10.88;;
52067;SDS011;60237;52.338;21.228;2023-12-29T03:20:50;30.67;;;7.53;;
52067;SDS011;60237;52.338;21.228;2023-12-29T03:23:16;50.20;;;10.57;;
52067;SDS011;60237;52.338;21.228;2023-12-29T03:25:43;71.88;;;11.23;;
52067;SDS011;60237;52.338;21.228;2023-12-29T03:28:10;56.28;;;10.57;;
52067;SDS011;60237;52.338;21.228;2023-12-29T03:30:37;59.38;;;10.15;;
52067;SDS011;60237;52.338;21.228;2023-12-29T03:33:03;87.78;;;11.43;;
52067;SDS011;60237;52.338;21.228;2023-12-29T03:35:32;38.53;;;9.35;;
52067;SDS011;60237;52.338;21.228;2023-12-29T03:37:59;58.17;;;10.10;;
52067;SDS011;60237;52.338;21.228;2023-12-29T03:40:25;79.60;;;11.52;;
52067;SDS011;60237;52.338;21.228;2023-12-29T03:42:52;32.10;;;9.10;;
52067;SDS011;60237;52.338;21.228;2023-12-29T03:45:19;74.18;;;11.93;;
52067;SDS011;60237;52.338;21.228;2023-12-29T03:47:46;93.90;;;12.82;;
52067;SDS011;60237;52.338;21.228;2023-12-29T03:50:13;46.92;;;9.82;;
52067;SDS011;60237;52.338;21.228;2023-12-29T03:52:40;48.40;;;9.82;;
52067;SDS011;60237;52.338;21.228;2023-12-29T03:55:07;80.15;;;12.02;;
52067;SDS011;60237;52.338;21.228;2023-12-29T03:57:34;31.90;;;9.23;;
52067;SDS011;60237;52.338;21.228;2023-12-29T04:00:00;70.68;;;12.65;;
52067;SDS011;60237;52.338;21.228;2023-12-29T04:02:37;67.78;;;11.07;;
52067;SDS011;60237;52.338;21.228;2023-12-29T04:05:04;34.75;;;9.50;;
52067;SDS011;60237;52.338;21.228;2023-12-29T04:07:32;45.17;;;10.18;;
52067;SDS011;60237;52.338;21.228;2023-12-29T04:09:59;42.65;;;10.05;;
52067;SDS011;60237;52.338;21.228;2023-12-29T04:12:25;48.42;;;10.35;;
52067;SDS011;60237;52.338;21.228;2023-12-29T04:14:52;36.38;;;9.85;;
52067;SDS011;60237;52.338;21.228;2023-12-29T04:17:18;70.20;;;12.07;;
52067;SDS011;60237;52.338;21.228;2023-12-29T04:19:46;40.35;;;10.48;;
52067;SDS011;60237;52.338;21.228;2023-12-29T04:22:13;53.33;;;10.85;;
52067;SDS011;60237;52.338;21.228;2023-12-29T04:24:39;65.50;;;11.82;;
52067;SDS011;60237;52.338;21.228;2023-12-29T04:27:06;46.35;;;10.45;;
52067;SDS011;60237;52.338;21.228;2023-12-29T04:29:33;53.50;;;12.10;;
52067;SDS011;60237;52.338;21.228;2023-12-29T04:32:01;108.20;;;14.73;;
52067;SDS011;60237;52.338;21.228;2023-12-29T04:34:27;55.17;;;11.32;;
52067;SDS011;60237;52.338;21.228;2023-12-29T04:36:54;49.13;;;12.77;;
52067;SDS011;60237;52.338;21.228;2023-12-29T04:39:21;93.55;;;14.07;;
52067;SDS011;60237;52.338;21.228;2023-12-29T04:41:48;63.53;;;12.48;;
52067;SDS011;60237;52.338;21.228;2023-12-29T04:44:15;57.35;;;12.73;;
52067;SDS011;60237;52.338;21.228;2023-12-29T04:46:41;71.20;;;12.85;;
52067;SDS011;60237;52.338;21.228;2023-12-29T04:49:08;41.85;;;10.48;;
52067;SDS011;60237;52.338;21.228;2023-12-29T04:51:35;65.97;;;13.13;;
52067;SDS011;60237;52.338;21.228;2023-12-29T04:54:02;98.68;;;13.73;;
52067;SDS011;60237;52.338;21.228;2023-12-29T04:56:28;46.42;;;12.13;;
52067;SDS011;60237;52.338;21.228;2023-12-29T04:58:55;59.58;;;13.15;;
52067;SDS011;60237;52.338;21.228;2023-12-29T05:01:23;77.95;;;13.27;;
52067;SDS011;60237;52.338;21.228;2023-12-29T05:03:49;52.90;;;12.35;;
52067;SDS011;60237;52.338;21.228;2023-12-29T05:06:16;35.55;;;11.45;;
52067;SDS011;60237;52.338;21.228;2023-12-29T05:08:42;93.15;;;13.70;;
52067;SDS011;60237;52.338;21.228;2023-12-29T05:11:09;48.05;;;12.40;;
52067;SDS011;60237;52.338;21.228;2023-12-29T05:13:35;55.80;;;12.13;;
52067;SDS011;60237;52.338;21.228;2023-12-29T05:16:02;84.63;;;15.30;;
52067;SDS011;60237;52.338;21.228;2023-12-29T05:18:30;62.80;;;12.57;;
52067;SDS011;60237;52.338;21.228;2023-12-29T05:20:56;45.25;;;12.05;;
52067;SDS011;60237;52.338;21.228;2023-12-29T05:23:23;87.40;;;14.68;;
52067;SDS011;60237;52.338;21.228;2023-12-29T05:25:50;47.10;;;12.23;;
52067;SDS011;60237;52.338;21.228;2023-12-29T05:28:17;45.60;;;12.38;;
52067;SDS011;60237;52.338;21.228;2023-12-29T05:30:43;86.25;;;14.18;;
52067;SDS011;60237;52.338;21.228;2023-12-29T05:33:10;64.28;;;12.93;;
52067;SDS011;60237;52.338;21.228;2023-12-29T05:35:37;48.97;;;13.27;;
52067;SDS011;60237;52.338;21.228;2023-12-29T05:38:03;61.25;;;13.20;;
52067;SDS011;60237;52.338;21.228;2023-12-29T05:40:30;61.97;;;13.60;;
52067;SDS011;60237;52.338;21.228;2023-12-29T05:42:57;60.25;;;13.65;;
52067;SDS011;60237;52.338;21.228;2023-12-29T05:45:23;68.07;;;13.40;;
52067;SDS011;60237;52.338;21.228;2023-12-29T05:47:50;49.83;;;13.48;;
52067;SDS011;60237;52.338;21.228;2023-12-29T05:50:16;49.13;;;13.00;;
52067;SDS011;60237;52.338;21.228;2023-12-29T05:52:43;72.55;;;14.05;;
52067;SDS011;60237;52.338;21.228;2023-12-29T05:55:09;48.65;;;12.68;;
52067;SDS011;60237;52.338;21.228;2023-12-29T05:57:36;38.03;;;11.20;;
52067;SDS011;60237;52.338;21.228;2023-12-29T06:00:03;55.35;;;13.57;;
52067;SDS011;60237;52.338;21.228;2023-12-29T06:02:37;43.80;;;12.45;;
52067;SDS011;60237;52.338;21.228;2023-12-29T06:05:03;52.13;;;11.90;;
52067;SDS011;60237;52.338;21.228;2023-12-29T06:07:30;83.50;;;14.43;;
52067;SDS011;60237;52.338;21.228;2023-12-29T06:09:57;49.33;;;14.13;;
52067;SDS011;60237;52.338;21.228;2023-12-29T06:12:24;32.33;;;11.02;;
52067;SDS011;60237;52.338;21.228;2023-12-29T06:14:50;62.90;;;14.02;;
52067;SDS011;60237;52.338;21.228;2023-12-29T06:17:16;51.92;;;11.80;;
52067;SDS011;60237;52.338;21.228;2023-12-29T06:19:43;46.35;;;11.55;;
52067;SDS011;60237;52.338;21.228;2023-12-29T06:22:10;52.65;;;12.23;;
52067;SDS011;60237;52.338;21.228;2023-12-29T06:24:38;54.97;;;12.65;;
52067;SDS011;60237;52.338;21.228;2023-12-29T06:27:04;57.20;;;12.30;;
52067;SDS011;60237;52.338;21.228;2023-12-29T06:29:31;44.72;;;12.35;;
52067;SDS011;60237;52.338;21.228;2023-12-29T06:31:57;63.53;;;12.75;;
52067;SDS011;60237;52.338;21.228;2023-12-29T06:34:24;60.55;;;12.15;;
52067;SDS011;60237;52.338;21.228;2023-12-29T06:36:50;47.55;;;12.30;;
52067;SDS011;60237;52.338;21.228;2023-12-29T06:39:17;126.68;;;15.93;;
52067;SDS011;60237;52.338;21.228;2023-12-29T06:41:44;39.92;;;12.70;;
52067;SDS011;60237;52.338;21.228;2023-12-29T06:44:10;56.17;;;12.40;;
52067;SDS011;60237;52.338;21.228;2023-12-29T06:46:37;57.22;;;13.15;;
52067;SDS011;60237;52.338;21.228;2023-12-29T06:49:06;51.03;;;12.45;;
52067;SDS011;60237;52.338;21.228;2023-12-29T06:51:33;56.22;;;13.38;;
52067;SDS011;60237;52.338;21.228;2023-12-29T06:53:59;92.65;;;15.10;;
52067;SDS011;60237;52.338;21.228;2023-12-29T06:56:26;80.38;;;13.80;;
52067;SDS011;60237;52.338;21.228;2023-12-29T06:58:52;59.58;;;13.27;;
52067;SDS011;60237;52.338;21.228;2023-12-29T07:01:19;95.07;;;16.98;;
52067;SDS011;60237;52.338;21.228;2023-12-29T07:03:45;40.00;;;12.98;;
52067;SDS011;60237;52.338;21.228;2023-12-29T07:06:12;88.32;;;16.38;;
52067;SDS011;60237;52.338;21.228;2023-12-29T07:08:39;104.90;;;17.15;;
52067;SDS011;60237;52.338;21.228;2023-12-29T07:11:09;54.25;;;13.82;;
52067;SDS011;60237;52.338;21.228;2023-12-29T07:13:36;55.35;;;12.30;;
52067;SDS011;60237;52.338;21.228;2023-12-29T07:16:02;101.47;;;14.90;;
52067;SDS011;60237;52.338;21.228;2023-12-29T07:18:29;53.88;;;11.82;;
52067;SDS011;60237;52.338;21.228;2023-12-29T07:20:56;59.22;;;13.40;;
52067;SDS011;60237;52.338;21.228;2023-12-29T07:23:22;91.55;;;15.68;;
52067;SDS011;60237;52.338;21.228;2023-12-29T07:25:50;82.22;;;14.35;;
52067;SDS011;60237;52.338;21.228;2023-12-29T07:28:17;45.00;;;11.45;;
52067;SDS011;60237;52.338;21.228;2023-12-29T07:30:43;83.22;;;13.18;;
52067;SDS011;60237;52.338;21.228;2023-12-29T07:33:10;74.07;;;13.35;;
52067;SDS011;60237;52.338;21.228;2023-12-29T07:35:37;74.30;;;14.50;;
52067;SDS011;60237;52.338;21.228;2023-12-29T07:38:03;89.55;;;14.13;;
52067;SDS011;60237;52.338;21.228;2023-12-29T07:40:30;73.07;;;12.60;;
52067;SDS011;60237;52.338;21.228;2023-12-29T07:42:57;45.50;;;9.52;;
52067;SDS011;60237;52.338;21.228;2023-12-29T07:45:23;88.13;;;12.52;;
52067;SDS011;60237;52.338;21.228;2023-12-29T07:47:50;49.20;;;10.98;;
52067;SDS011;60237;52.338;21.228;2023-12-29T07:50:17;51.17;;;10.45;;
52067;SDS011;60237;52.338;21.228;2023-12-29T07:52:44;45.97;;;10.65;;
52067;SDS011;60237;52.338;21.228;2023-12-29T07:55:10;42.85;;;10.32;;
52067;SDS011;60237;52.338;21.228;2023-12-29T07:57:37;66.22;;;10.63;;
52067;SDS011;60237;52.338;21.228;2023-12-29T08:00:04;105.15;;;13.48;;
52067;SDS011;60237;52.338;21.228;2023-12-29T08:05:03;29.02;;;9.00;;
52067;SDS011;60237;52.338;21.228;2023-12-29T08:07:30;78.07;;;11.38;;
52067;SDS011;60237;52.338;21.228;2023-12-29T08:10:00;69.45;;;11.50;;
52067;SDS011;60237;52.338;21.228;2023-12-29T08:12:27;66.07;;;10.80;;
52067;SDS011;60237;52.338;21.228;2023-12-29T08:14:54;74.00;;;11.85;;
52067;SDS011;60237;52.338;21.228;2023-12-29T08:17:21;56.13;;;10.45;;
52067;SDS011;60237;52.338;21.228;2023-12-29T08:19:48;54.60;;;11.50;;
52067;SDS011;60237;52.338;21.228;2023-12-29T08:22:14;75.60;;;11.27;;
52067;SDS011;60237;52.338;21.228;2023-12-29T08:24:41;55.83;;;10.82;;
52067;SDS011;60237;52.338;21.228;2023-12-29T08:27:12;67.38;;;11.30;;
52067;SDS011;60237;52.338;21.228;2023-12-29T08:29:38;84.85;;;12.57;;
52067;SDS011;60237;52.338;21.228;2023-12-29T08:32:08;43.97;;;9.98;;
52067;SDS011;60237;52.338;21.228;2023-12-29T08:34:36;82.30;;;12.77;;
52067;SDS011;60237;52.338;21.228;2023-12-29T08:37:04;57.20;;;11.20;;
52067;SDS011;60237;52.338;21.228;2023-12-29T08:39:31;49.22;;;10.57;;
52067;SDS011;60237;52.338;21.228;2023-12-29T08:41:57;45.75;;;9.15;;
52067;SDS011;60237;52.338;21.228;2023-12-29T08:44:24;84.57;;;12.05;;
52067;SDS011;60237;52.338;21.228;2023-12-29T08:46:51;38.50;;;10.48;;
52067;SDS011;60237;52.338;21.228;2023-12-29T08:49:17;39.95;;;9.68;;
52067;SDS011;60237;52.338;21.228;2023-12-29T08:51:44;74.45;;;12.05;;
52067;SDS011;60237;52.338;21.228;2023-12-29T08:54:11;91.30;;;12.40;;
52067;SDS011;60237;52.338;21.228;2023-12-29T08:56:37;47.17;;;10.10;;
52067;SDS011;60237;52.338;21.228;2023-12-29T08:59:04;96.07;;;12.73;;
52067;SDS011;60237;52.338;21.228;2023-12-29T09:01:30;65.32;;;10.30;;
52067;SDS011;60237;52.338;21.228;2023-12-29T09:03:57;78.20;;;11.25;;
52067;SDS011;60237;52.338;21.228;2023-12-29T09:06:24;86.57;;;11.73;;
52067;SDS011;60237;52.338;21.228;2023-12-29T09:08:51;41.70;;;9.23;;
52067;SDS011;60237;52.338;21.228;2023-12-29T09:11:17;76.03;;;10.88;;
52067;SDS011;60237;52.338;21.228;2023-12-29T09:13:44;72.28;;;10.60;;
52067;SDS011;60237;52.338;21.228;2023-12-29T09:16:10;38.17;;;8.35;;
52067;SDS011;60237;52.338;21.228;2023-12-29T09:18:37;62.95;;;9.32;;
52067;SDS011;60237;52.338;21.228;2023-12-29T09:21:04;81.95;;;11.10;;
52067;SDS011;60237;52.338;21.228;2023-12-29T09:23:30;40.92;;;9.40;;
52067;SDS011;60237;52.338;21.228;2023-12-29T09:25:58;74.60;;;10.48;;
52067;SDS011;60237;52.338;21.228;2023-12-29T09:28:25;74.95;;;11.27;;
52067;SDS011;60237;52.338;21.228;2023-12-29T09:30:51;51.17;;;10.07;;
52067;SDS011;60237;52.338;21.228;2023-12-29T09:33:18;79.63;;;11.27;;
52067;SDS011;60237;52.338;21.228;2023-12-29T09:35:44;88.78;;;11.98;;
52067;SDS011;60237;52.338;21.228;2023-12-29T09:38:11;31.30;;;7.90;;
52067;SDS011;60237;52.338;21.228;2023-12-29T09:40:38;63.08;;;9.95;;
52067;SDS011;60237;52.338;21.228;2023-12-29T09:43:04;63.92;;;9.73;;
52067;SDS011;60237;52.338;21.228;2023-12-29T09:45:31;98.30;;;12.32;;
52067;SDS011;60237;52.338;21.228;2023-12-29T09:47:59;70.95;;;10.27;;
52067;SDS011;60237;52.338;21.228;2023-12-29T09:50:30;93.25;;;11.55;;
52067;SDS011;60237;52.338;21.228;2023-12-29T09:52:56;63.60;;;10.88;;
52067;SDS011;60237;52.338;21.228;2023-12-29T09:55:24;58.20;;;13.27;;
52067;SDS011;60237;52.338;21.228;2023-12-29T09:57:51;106.78;;;13.30;;
52067;SDS011;60237;52.338;21.228;2023-12-29T10:00:18;48.78;;;9.32;;
52067;SDS011;60237;52.338;21.228;2023-12-29T10:02:45;51.08;;;9.20;;
52067;SDS011;60237;52.338;21.228;2023-12-29T10:05:11;52.90;;;8.35;;
52067;SDS011;60237;52.338;21.228;2023-12-29T10:07:39;52.38;;;7.82;;
52067;SDS011;60237;52.338;21.228;2023-12-29T10:10:06;39.08;;;7.00;;
52067;SDS011;60237;52.338;21.228;2023-12-29T10:12:33;95.30;;;10.50;;
52067;SDS011;60237;52.338;21.228;2023-12-29T10:17:36;55.17;;;8.48;;
52067;SDS011;60237;52.338;21.228;2023-12-29T10:22:51;67.18;;;9.15;;
52067;SDS011;60237;52.338;21.228;2023-12-29T10:25:18;61.38;;;7.72;;
52067;SDS011;60237;52.338;21.228;2023-12-29T10:27:44;55.58;;;8.43;;
52067;SDS011;60237;52.338;21.228;2023-12-29T10:30:11;38.33;;;6.47;;
52067;SDS011;60237;52.338;21.228;2023-12-29T10:32:53;37.67;;;5.60;;
52067;SDS011;60237;52.338;21.228;2023-12-29T10:35:20;32.92;;;6.10;;
52067;SDS011;60237;52.338;21.228;2023-12-29T10:37:47;52.88;;;5.82;;
52067;SDS011;60237;52.338;21.228;2023-12-29T10:40:19;40.10;;;4.97;;
52067;SDS011;60237;52.338;21.228;2023-12-29T10:45:14;99.50;;;8.30;;
52067;SDS011;60237;52.338;21.228;2023-12-29T10:47:43;27.35;;;4.65;;
52067;SDS011;60237;52.338;21.228;2023-12-29T10:50:10;29.85;;;4.30;;
52067;SDS011;60237;52.338;21.228;2023-12-29T10:52:36;76.28;;;7.22;;
52067;SDS011;60237;52.338;21.228;2023-12-29T10:55:05;36.65;;;5.47;;
52067;SDS011;60237;52.338;21.228;2023-12-29T10:57:32;53.28;;;6.38;;
52067;SDS011;60237;52.338;21.228;2023-12-29T11:00:01;73.88;;;7.25;;
52067;SDS011;60237;52.338;21.228;2023-12-29T11:02:28;59.80;;;6.45;;
52067;SDS011;60237;52.338;21.228;2023-12-29T11:05:05;36.00;;;5.53;;
52067;SDS011;60237;52.338;21.228;2023-12-29T11:07:33;49.10;;;5.78;;
52067;SDS011;60237;52.338;21.228;2023-12-29T11:10:00;33.85;;;5.18;;
52067;SDS011;60237;52.338;21.228;2023-12-29T11:12:27;63.70;;;7.47;;
52067;SDS011;60237;52.338;21.228;2023-12-29T11:14:55;43.22;;;5.63;;
52067;SDS011;60237;52.338;21.228;2023-12-29T11:17:22;35.78;;;5.75;;
52067;SDS011;60237;52.338;21.228;2023-12-29T11:19:49;55.63;;;6.72;;
52067;SDS011;60237;52.338;21.228;2023-12-29T11:22:17;16.42;;;3.75;;
52067;SDS011;60237;52.338;21.228;2023-12-29T11:24:46;44.97;;;4.55;;
52067;SDS011;60237;52.338;21.228;2023-12-29T11:27:13;55.22;;;5.78;;
52067;SDS011;60237;52.338;21.228;2023-12-29T11:29:40;28.20;;;4.65;;
52067;SDS011;60237;52.338;21.228;2023-12-29T11:32:11;43.55;;;5.72;;
52067;SDS011;60237;52.338;21.228;2023-12-29T11:34:41;75.38;;;7.63;;
52067;SDS011;60237;52.338;21.228;2023-12-29T11:39:52;40.53;;;5.28;;
52067;SDS011;60237;52.338;21.228;2023-12-29T11:42:21;26.80;;;4.65;;
52067;SDS011;60237;52.338;21.228;2023-12-29T11:44:49;60.42;;;6.30;;
52067;SDS011;60237;52.338;21.228;2023-12-29T11:50:03;50.90;;;6.20;;
52067;SDS011;60237;52.338;21.228;2023-12-29T11:52:37;85.25;;;8.40;;
52067;SDS011;60237;52.338;21.228;2023-12-29T11:55:11;62.38;;;7.25;;
52067;SDS011;60237;52.338;21.228;2023-12-29T12:00:08;73.55;;;6.72;;
52067;SDS011;60237;52.338;21.228;2023-12-29T12:02:38;64.25;;;7.22;;
52067;SDS011;60237;52.338;21.228;2023-12-29T12:05:05;82.07;;;7.38;;
52067;SDS011;60237;52.338;21.228;2023-12-29T12:12:47;26.17;;;4.05;;
52067;SDS011;60237;52.338;21.228;2023-12-29T12:17:54;90.63;;;7.85;;
52067;SDS011;60237;52.338;21.228;2023-12-29T12:20:20;58.33;;;6.28;;
52067;SDS011;60237;52.338;21.228;2023-12-29T12:22:49;52.85;;;5.85;;
52067;SDS011;60237;52.338;21.228;2023-12-29T12:25:16;90.85;;;8.85;;
52067;SDS011;60237;52.338;21.228;2023-12-29T12:27:43;36.13;;;4.50;;
52067;SDS011;60237;52.338;21.228;2023-12-29T12:30:10;48.60;;;6.13;;
52067;SDS011;60237;52.338;21.228;2023-12-29T12:32:37;94.47;;;8.82;;
52067;SDS011;60237;52.338;21.228;2023-12-29T12:35:04;69.00;;;7.03;;
52067;SDS011;60237;52.338;21.228;2023-12-29T12:37:41;60.30;;;5.90;;
52067;SDS011;60237;52.338;21.228;2023-12-29T12:40:08;48.45;;;5.32;;
52067;SDS011;60237;52.338;21.228;2023-12-29T12:42:38;52.25;;;6.45;;
52067;SDS011;60237;52.338;21.228;2023-12-29T12:45:11;106.20;;;8.43;;
52067;SDS011;60237;52.338;21.228;2023-12-29T12:47:43;56.55;;;6.05;;
52067;SDS011;60237;52.338;21.228;2023-12-29T12:50:12;39.53;;;5.15;;
52067;SDS011;60237;52.338;21.228;2023-12-29T12:52:38;75.35;;;6.95;;
52067;SDS011;60237;52.338;21.228;2023-12-29T12:55:06;39.83;;;5.63;;
52067;SDS011;60237;52.338;21.228;2023-12-29T12:57:34;70.05;;;7.07;;
52067;SDS011;60237;52.338;21.228;2023-12-29T13:00:01;74.25;;;7.75;;
52067;SDS011;60237;52.338;21.228;2023-12-29T13:02:29;55.50;;;6.88;;
52067;SDS011;60237;52.338;21.228;2023-12-29T13:04:56;39.33;;;5.72;;
52067;SDS011;60237;52.338;21.228;2023-12-29T13:07:23;66.78;;;7.60;;
52067;SDS011;60237;52.338;21.228;2023-12-29T13:09:50;57.05;;;6.43;;
52067;SDS011;60237;52.338;21.228;2023-12-29T13:12:18;65.57;;;7.10;;
52067;SDS011;60237;52.338;21.228;2023-12-29T13:14:45;48.80;;;5.78;;
52067;SDS011;60237;52.338;21.228;2023-12-29T13:17:15;81.75;;;7.90;;
52067;SDS011;60237;52.338;21.228;2023-12-29T13:19:44;68.93;;;9.77;;
52067;SDS011;60237;52.338;21.228;2023-12-29T13:22:11;67.30;;;7.75;;
52067;SDS011;60237;52.338;21.228;2023-12-29T13:24:45;59.13;;;7.32;;
52067;SDS011;60237;52.338;21.228;2023-12-29T13:27:12;97.93;;;8.35;;
52067;SDS011;60237;52.338;21.228;2023-12-29T13:29:39;51.53;;;5.63;;
52067;SDS011;60237;52.338;21.228;2023-12-29T13:32:11;53.35;;;6.50;;
52067;SDS011;60237;52.338;21.228;2023-12-29T13:40:03;88.72;;;7.95;;
52067;SDS011;60237;52.338;21.228;2023-12-29T13:42:36;43.13;;;5.70;;
52067;SDS011;60237;52.338;21.228;2023-12-29T13:45:05;80.47;;;7.85;;
52067;SDS011;60237;52.338;21.228;2023-12-29T13:47:32;88.03;;;9.30;;
52067;SDS011;60237;52.338;21.228;2023-12-29T13:49:59;54.65;;;6.28;;
52067;SDS011;60237;52.338;21.228;2023-12-29T13:52:26;95.20;;;8.80;;
52067;SDS011;60237;52.338;21.228;2023-12-29T13:54:53;45.17;;;6.88;;
52067;SDS011;60237;52.338;21.228;2023-12-29T13:57:29;36.95;;;6.22;;
52067;SDS011;60237;52.338;21.228;2023-12-29T13:59:56;53.63;;;6.93;;
52067;SDS011;60237;52.338;21.228;2023-12-29T14:02:31;48.33;;;6.45;;
52067;SDS011;60237;52.338;21.228;2023-12-29T14:05:10;47.65;;;6.88;;
52067;SDS011;60237;52.338;21.228;2023-12-29T14:07:40;36.88;;;5.55;;
52067;SDS011;60237;52.338;21.228;2023-12-29T14:10:11;60.10;;;8.00;;
52067;SDS011;60237;52.338;21.228;2023-12-29T14:12:40;78.97;;;8.43;;
52067;SDS011;60237;52.338;21.228;2023-12-29T14:15:07;50.58;;;7.43;;
52067;SDS011;60237;52.338;21.228;2023-12-29T14:17:34;63.20;;;7.65;;
52067;SDS011;60237;52.338;21.228;2023-12-29T14:20:00;56.88;;;6.57;;
52067;SDS011;60237;52.338;21.228;2023-12-29T14:22:33;102.07;;;11.23;;
52067;SDS011;60237;52.338;21.228;2023-12-29T14:25:04;86.97;;;9.32;;
52067;SDS011;60237;52.338;21.228;2023-12-29T14:27:31;44.35;;;7.25;;
52067;SDS011;60237;52.338;21.228;2023-12-29T14:29:58;59.83;;;6.80;;
52067;SDS011;60237;52.338;21.228;2023-12-29T14:32:26;82.28;;;8.55;;
52067;SDS011;60237;52.338;21.228;2023-12-29T14:34:55;42.33;;;6.32;;
52067;SDS011;60237;52.338;21.228;2023-12-29T14:37:22;40.05;;;5.75;;
52067;SDS011;60237;52.338;21.228;2023-12-29T14:39:49;109.30;;;8.75;;
52067;SDS011;60237;52.338;21.228;2023-12-29T14:42:17;33.17;;;4.70;;
52067;SDS011;60237;52.338;21.228;2023-12-29T14:44:47;43.65;;;5.60;;
52067;SDS011;60237;52.338;21.228;2023-12-29T14:47:14;83.93;;;9.43;;
52067;SDS011;60237;52.338;21.228;2023-12-29T14:49:42;24.02;;;5.18;;
52067;SDS011;60237;52.338;21.228;2023-12-29T14:52:09;59.25;;;7.15;;
52067;SDS011;60237;52.338;21.228;2023-12-29T14:54:37;90.30;;;9.27;;